sensor_id;sensor_type;location;lat;lon;timestamp;P1;durP1;ratioP1;P2;durP2;ratioP2
15466;SDS011;7834;49.452;11.056;2023-03-31T00:02:01;6.63;;;3.05;;
15466;SDS011;7834;49.452;11.056;2023-03-31T00:04:31;6.55;;;2.90;;
15466;SDS011;7834;49.452;11.056;2023-03-31T00:06:57;6.33;;;2.80;;
15466;SDS011;7834;49.452;11.056;2023-03-31T00:09:23;6.27;;;2.83;;
15466;SDS011;7834;49.452;11.056;2023-03-31T00:11:50;5.45;;;2.40;;
15466;SDS011;7834;49.452;11.056;2023-03-31T00:14:17;4.78;;;2.30;;
15466;SDS011;7834;49.452;11.056;2023-03-31T00:16:43;6.57;;;2.57;;
15466;SDS011;7834;49.452;11.056;2023-03-31T00:19:09;6.68;;;2.60;;
15466;SDS011;7834;49.452;11.056;2023-03-31T00:21:41;5.05;;;2.38;;
15466;SDS011;7834;49.452;11.056;2023-03-31T00:24:08;6.67;;;2.40;;
15466;SDS011;7834;49.452;11.056;2023-03-31T00:26:35;5.07;;;2.30;;
15466;SDS011;7834;49.452;11.056;2023-03-31T00:29:02;6.35;;;2.50;;
15466;SDS011;7834;49.452;11.056;2023-03-31T00:31:28;5.95;;;2.63;;
15466;SDS011;7834;49.452;11.056;2023-03-31T00:33:54;4.88;;;2.22;;
15466;SDS011;7834;49.452;11.056;2023-03-31T00:36:21;5.25;;;2.17;;
15466;SDS011;7834;49.452;11.056;2023-03-31T00:38:55;5.45;;;2.00;;
15466;SDS011;7834;49.452;11.056;2023-03-31T00:41:23;5.80;;;2.50;;
15466;SDS011;7834;49.452;11.056;2023-03-31T00:51:49;5.30;;;2.13;;
15466;SDS011;7834;49.452;11.056;2023-03-31T00:54:18;4.93;;;2.35;;
15466;SDS011;7834;49.452;11.056;2023-03-31T00:56:45;4.93;;;2.40;;
15466;SDS011;7834;49.452;11.056;2023-03-31T00:59:12;5.95;;;2.60;;
15466;SDS011;7834;49.452;11.056;2023-03-31T01:01:39;7.50;;;2.50;;
15466;SDS011;7834;49.452;11.056;2023-03-31T01:04:07;4.25;;;2.30;;
15466;SDS011;7834;49.452;11.056;2023-03-31T01:06:36;6.25;;;2.40;;
15466;SDS011;7834;49.452;11.056;2023-03-31T01:09:06;4.22;;;2.30;;
15466;SDS011;7834;49.452;11.056;2023-03-31T01:11:32;5.38;;;2.47;;
15466;SDS011;7834;49.452;11.056;2023-03-31T01:13:59;6.88;;;2.60;;
15466;SDS011;7834;49.452;11.056;2023-03-31T01:16:25;5.15;;;2.47;;
15466;SDS011;7834;49.452;11.056;2023-03-31T01:18:51;5.18;;;2.55;;
15466;SDS011;7834;49.452;11.056;2023-03-31T01:22:06;4.95;;;2.60;;
15466;SDS011;7834;49.452;11.056;2023-03-31T01:37:18;5.78;;;2.55;;
15466;SDS011;7834;49.452;11.056;2023-03-31T01:42:20;6.07;;;2.80;;
15466;SDS011;7834;49.452;11.056;2023-03-31T01:45:11;4.78;;;2.75;;
15466;SDS011;7834;49.452;11.056;2023-03-31T01:47:37;6.47;;;2.90;;
15466;SDS011;7834;49.452;11.056;2023-03-31T01:50:05;5.35;;;2.60;;
15466;SDS011;7834;49.452;11.056;2023-03-31T01:57:35;5.70;;;2.90;;
15466;SDS011;7834;49.452;11.056;2023-03-31T02:02:32;6.68;;;2.97;;
15466;SDS011;7834;49.452;11.056;2023-03-31T02:05:03;6.15;;;2.60;;
15466;SDS011;7834;49.452;11.056;2023-03-31T02:08:05;5.85;;;2.85;;
15466;SDS011;7834;49.452;11.056;2023-03-31T02:10:24;4.70;;;2.67;;
15466;SDS011;7834;49.452;11.056;2023-03-31T02:12:51;7.43;;;2.80;;
15466;SDS011;7834;49.452;11.056;2023-03-31T02:15:20;5.57;;;2.97;;
15466;SDS011;7834;49.452;11.056;2023-03-31T02:17:47;6.75;;;2.60;;
15466;SDS011;7834;49.452;11.056;2023-03-31T02:20:14;5.35;;;2.78;;
15466;SDS011;7834;49.452;11.056;2023-03-31T02:22:44;5.55;;;2.60;;
15466;SDS011;7834;49.452;11.056;2023-03-31T02:25:11;6.25;;;2.85;;
15466;SDS011;7834;49.452;11.056;2023-03-31T02:27:40;6.25;;;2.58;;
15466;SDS011;7834;49.452;11.056;2023-03-31T02:30:08;6.80;;;2.60;;
15466;SDS011;7834;49.452;11.056;2023-03-31T02:32:42;7.57;;;2.53;;
15466;SDS011;7834;49.452;11.056;2023-03-31T02:35:19;5.18;;;2.80;;
15466;SDS011;7834;49.452;11.056;2023-03-31T02:37:47;5.25;;;2.55;;
15466;SDS011;7834;49.452;11.056;2023-03-31T02:40:18;5.80;;;2.53;;
15466;SDS011;7834;49.452;11.056;2023-03-31T02:42:45;7.28;;;2.63;;
15466;SDS011;7834;49.452;11.056;2023-03-31T02:47:56;6.20;;;2.50;;
15466;SDS011;7834;49.452;11.056;2023-03-31T02:50:23;4.57;;;2.42;;
15466;SDS011;7834;49.452;11.056;2023-03-31T02:52:57;4.72;;;2.30;;
15466;SDS011;7834;49.452;11.056;2023-03-31T02:58:11;5.88;;;2.63;;
15466;SDS011;7834;49.452;11.056;2023-03-31T03:08:47;5.57;;;2.30;;
15466;SDS011;7834;49.452;11.056;2023-03-31T03:16:46;6.63;;;2.40;;
15466;SDS011;7834;49.452;11.056;2023-03-31T03:19:18;5.97;;;2.10;;
15466;SDS011;7834;49.452;11.056;2023-03-31T03:21:45;3.67;;;2.28;;
15466;SDS011;7834;49.452;11.056;2023-03-31T03:24:13;7.00;;;2.60;;
15466;SDS011;7834;49.452;11.056;2023-03-31T03:26:45;6.88;;;2.78;;
15466;SDS011;7834;49.452;11.056;2023-03-31T03:29:12;5.03;;;2.38;;
15466;SDS011;7834;49.452;11.056;2023-03-31T03:31:39;6.45;;;2.63;;
15466;SDS011;7834;49.452;11.056;2023-03-31T03:34:05;5.55;;;2.53;;
15466;SDS011;7834;49.452;11.056;2023-03-31T03:36:31;6.38;;;2.70;;
15466;SDS011;7834;49.452;11.056;2023-03-31T03:38:57;7.13;;;2.55;;
15466;SDS011;7834;49.452;11.056;2023-03-31T03:41:23;5.97;;;2.40;;
15466;SDS011;7834;49.452;11.056;2023-03-31T03:43:49;7.72;;;2.70;;
15466;SDS011;7834;49.452;11.056;2023-03-31T03:46:15;5.20;;;2.40;;
15466;SDS011;7834;49.452;11.056;2023-03-31T03:48:42;7.70;;;2.50;;
15466;SDS011;7834;49.452;11.056;2023-03-31T03:51:07;7.27;;;2.40;;
15466;SDS011;7834;49.452;11.056;2023-03-31T03:53:34;7.15;;;2.58;;
15466;SDS011;7834;49.452;11.056;2023-03-31T03:56:00;5.13;;;2.50;;
15466;SDS011;7834;49.452;11.056;2023-03-31T03:58:26;7.20;;;2.63;;
15466;SDS011;7834;49.452;11.056;2023-03-31T04:00:52;6.97;;;2.53;;
15466;SDS011;7834;49.452;11.056;2023-03-31T04:03:18;5.13;;;2.47;;
15466;SDS011;7834;49.452;11.056;2023-03-31T04:05:46;5.63;;;2.70;;
15466;SDS011;7834;49.452;11.056;2023-03-31T04:08:13;6.70;;;2.40;;
15466;SDS011;7834;49.452;11.056;2023-03-31T04:10:46;6.82;;;2.50;;
15466;SDS011;7834;49.452;11.056;2023-03-31T04:13:13;8.02;;;2.85;;
15466;SDS011;7834;49.452;11.056;2023-03-31T04:15:40;7.20;;;2.85;;
15466;SDS011;7834;49.452;11.056;2023-03-31T04:18:06;6.05;;;2.80;;
15466;SDS011;7834;49.452;11.056;2023-03-31T04:20:34;7.60;;;2.78;;
15466;SDS011;7834;49.452;11.056;2023-03-31T04:23:02;7.53;;;3.03;;
15466;SDS011;7834;49.452;11.056;2023-03-31T04:25:29;5.00;;;2.53;;
15466;SDS011;7834;49.452;11.056;2023-03-31T04:27:55;6.63;;;2.53;;
15466;SDS011;7834;49.452;11.056;2023-03-31T04:30:22;6.77;;;2.90;;
15466;SDS011;7834;49.452;11.056;2023-03-31T04:32:56;6.72;;;2.75;;
15466;SDS011;7834;49.452;11.056;2023-03-31T04:35:23;4.53;;;2.55;;
15466;SDS011;7834;49.452;11.056;2023-03-31T04:37:49;7.30;;;2.63;;
15466;SDS011;7834;49.452;11.056;2023-03-31T04:40:16;4.95;;;2.63;;
15466;SDS011;7834;49.452;11.056;2023-03-31T04:42:43;6.73;;;2.80;;
15466;SDS011;7834;49.452;11.056;2023-03-31T04:45:10;6.38;;;2.67;;
15466;SDS011;7834;49.452;11.056;2023-03-31T04:47:36;4.43;;;2.63;;
15466;SDS011;7834;49.452;11.056;2023-03-31T04:50:03;9.20;;;3.42;;
15466;SDS011;7834;49.452;11.056;2023-03-31T04:52:29;6.00;;;2.80;;
15466;SDS011;7834;49.452;11.056;2023-03-31T04:54:55;6.55;;;2.95;;
15466;SDS011;7834;49.452;11.056;2023-03-31T04:57:21;6.97;;;3.10;;
15466;SDS011;7834;49.452;11.056;2023-03-31T04:59:47;7.35;;;3.10;;
15466;SDS011;7834;49.452;11.056;2023-03-31T05:02:13;7.23;;;2.80;;
15466;SDS011;7834;49.452;11.056;2023-03-31T05:04:47;6.07;;;2.90;;
15466;SDS011;7834;49.452;11.056;2023-03-31T05:07:13;7.65;;;3.03;;
15466;SDS011;7834;49.452;11.056;2023-03-31T05:09:39;7.30;;;3.35;;
15466;SDS011;7834;49.452;11.056;2023-03-31T05:12:05;7.73;;;3.43;;
15466;SDS011;7834;49.452;11.056;2023-03-31T05:14:31;8.23;;;3.50;;
15466;SDS011;7834;49.452;11.056;2023-03-31T05:16:57;7.43;;;3.25;;
15466;SDS011;7834;49.452;11.056;2023-03-31T05:19:23;7.75;;;3.10;;
15466;SDS011;7834;49.452;11.056;2023-03-31T05:21:49;9.00;;;3.40;;
15466;SDS011;7834;49.452;11.056;2023-03-31T05:24:15;7.25;;;3.00;;
15466;SDS011;7834;49.452;11.056;2023-03-31T05:26:41;6.40;;;3.13;;
15466;SDS011;7834;49.452;11.056;2023-03-31T05:29:12;6.68;;;3.10;;
15466;SDS011;7834;49.452;11.056;2023-03-31T05:31:40;6.72;;;3.60;;
15466;SDS011;7834;49.452;11.056;2023-03-31T05:34:06;8.45;;;3.70;;
15466;SDS011;7834;49.452;11.056;2023-03-31T05:36:32;8.43;;;3.78;;
15466;SDS011;7834;49.452;11.056;2023-03-31T05:38:59;8.68;;;4.10;;
15466;SDS011;7834;49.452;11.056;2023-03-31T05:41:25;9.27;;;4.30;;
15466;SDS011;7834;49.452;11.056;2023-03-31T05:43:51;8.38;;;3.95;;
15466;SDS011;7834;49.452;11.056;2023-03-31T05:46:17;7.85;;;3.47;;
15466;SDS011;7834;49.452;11.056;2023-03-31T05:48:43;7.40;;;3.40;;
15466;SDS011;7834;49.452;11.056;2023-03-31T05:51:10;6.65;;;3.38;;
15466;SDS011;7834;49.452;11.056;2023-03-31T05:53:36;7.65;;;3.20;;
15466;SDS011;7834;49.452;11.056;2023-03-31T05:56:03;7.47;;;3.30;;
15466;SDS011;7834;49.452;11.056;2023-03-31T05:58:32;6.07;;;2.90;;
15466;SDS011;7834;49.452;11.056;2023-03-31T06:03:29;7.65;;;3.38;;
15466;SDS011;7834;49.452;11.056;2023-03-31T06:05:55;8.60;;;3.60;;
15466;SDS011;7834;49.452;11.056;2023-03-31T06:08:22;8.07;;;4.28;;
15466;SDS011;7834;49.452;11.056;2023-03-31T06:10:48;9.52;;;4.10;;
15466;SDS011;7834;49.452;11.056;2023-03-31T06:13:15;9.75;;;4.40;;
15466;SDS011;7834;49.452;11.056;2023-03-31T06:15:41;8.40;;;4.10;;
15466;SDS011;7834;49.452;11.056;2023-03-31T06:18:07;8.73;;;4.17;;
15466;SDS011;7834;49.452;11.056;2023-03-31T06:20:35;9.70;;;3.83;;
15466;SDS011;7834;49.452;11.056;2023-03-31T06:23:01;11.68;;;3.83;;
15466;SDS011;7834;49.452;11.056;2023-03-31T06:25:27;9.18;;;3.90;;
15466;SDS011;7834;49.452;11.056;2023-03-31T06:27:53;9.45;;;4.05;;
15466;SDS011;7834;49.452;11.056;2023-03-31T06:30:19;8.75;;;3.90;;
15466;SDS011;7834;49.452;11.056;2023-03-31T06:32:45;8.35;;;3.30;;
15466;SDS011;7834;49.452;11.056;2023-03-31T06:35:11;6.77;;;3.20;;
15466;SDS011;7834;49.452;11.056;2023-03-31T06:37:37;6.82;;;3.28;;
15466;SDS011;7834;49.452;11.056;2023-03-31T06:40:03;10.57;;;3.75;;
15466;SDS011;7834;49.452;11.056;2023-03-31T06:42:29;9.95;;;3.50;;
15466;SDS011;7834;49.452;11.056;2023-03-31T06:44:55;6.95;;;3.15;;
15466;SDS011;7834;49.452;11.056;2023-03-31T06:47:21;8.50;;;3.42;;
15466;SDS011;7834;49.452;11.056;2023-03-31T06:49:47;9.10;;;3.67;;
15466;SDS011;7834;49.452;11.056;2023-03-31T06:52:13;7.22;;;3.33;;
15466;SDS011;7834;49.452;11.056;2023-03-31T06:54:39;8.80;;;3.40;;
15466;SDS011;7834;49.452;11.056;2023-03-31T06:57:06;8.87;;;3.67;;
15466;SDS011;7834;49.452;11.056;2023-03-31T06:59:32;7.35;;;3.90;;
15466;SDS011;7834;49.452;11.056;2023-03-31T07:01:58;6.93;;;4.20;;
15466;SDS011;7834;49.452;11.056;2023-03-31T07:04:24;8.10;;;4.20;;
15466;SDS011;7834;49.452;11.056;2023-03-31T07:06:50;8.65;;;4.57;;
15466;SDS011;7834;49.452;11.056;2023-03-31T07:09:16;8.48;;;4.43;;
15466;SDS011;7834;49.452;11.056;2023-03-31T07:11:42;9.10;;;4.90;;
15466;SDS011;7834;49.452;11.056;2023-03-31T07:14:08;8.45;;;4.70;;
15466;SDS011;7834;49.452;11.056;2023-03-31T07:16:34;9.40;;;4.90;;
15466;SDS011;7834;49.452;11.056;2023-03-31T07:19:00;10.23;;;5.88;;
15466;SDS011;7834;49.452;11.056;2023-03-31T07:21:27;10.82;;;6.00;;
15466;SDS011;7834;49.452;11.056;2023-03-31T07:23:53;9.43;;;6.10;;
15466;SDS011;7834;49.452;11.056;2023-03-31T07:26:20;10.18;;;6.10;;
15466;SDS011;7834;49.452;11.056;2023-03-31T07:28:46;11.30;;;6.13;;
15466;SDS011;7834;49.452;11.056;2023-03-31T07:31:12;10.88;;;6.43;;
15466;SDS011;7834;49.452;11.056;2023-03-31T07:33:39;10.98;;;6.47;;
15466;SDS011;7834;49.452;11.056;2023-03-31T07:36:05;13.13;;;7.15;;
15466;SDS011;7834;49.452;11.056;2023-03-31T07:38:32;12.55;;;7.40;;
15466;SDS011;7834;49.452;11.056;2023-03-31T07:40:58;13.23;;;7.72;;
15466;SDS011;7834;49.452;11.056;2023-03-31T07:43:24;15.57;;;7.75;;
15466;SDS011;7834;49.452;11.056;2023-03-31T07:45:50;11.32;;;7.60;;
15466;SDS011;7834;49.452;11.056;2023-03-31T07:48:16;12.13;;;7.70;;
15466;SDS011;7834;49.452;11.056;2023-03-31T07:50:42;12.10;;;6.80;;
15466;SDS011;7834;49.452;11.056;2023-03-31T07:53:08;12.00;;;6.75;;
15466;SDS011;7834;49.452;11.056;2023-03-31T07:55:34;11.77;;;5.85;;
15466;SDS011;7834;49.452;11.056;2023-03-31T07:58:01;11.70;;;6.30;;
15466;SDS011;7834;49.452;11.056;2023-03-31T08:00:27;9.60;;;5.88;;
15466;SDS011;7834;49.452;11.056;2023-03-31T08:02:53;10.65;;;6.20;;
15466;SDS011;7834;49.452;11.056;2023-03-31T08:05:20;9.10;;;5.95;;
15466;SDS011;7834;49.452;11.056;2023-03-31T08:07:46;10.75;;;5.82;;
15466;SDS011;7834;49.452;11.056;2023-03-31T08:10:15;10.15;;;6.40;;
15466;SDS011;7834;49.452;11.056;2023-03-31T08:12:41;11.52;;;6.68;;
15466;SDS011;7834;49.452;11.056;2023-03-31T08:15:07;12.02;;;7.03;;
15466;SDS011;7834;49.452;11.056;2023-03-31T08:17:34;15.75;;;7.25;;
15466;SDS011;7834;49.452;11.056;2023-03-31T08:20:00;11.40;;;7.28;;
15466;SDS011;7834;49.452;11.056;2023-03-31T08:22:26;14.07;;;8.05;;
15466;SDS011;7834;49.452;11.056;2023-03-31T08:24:52;14.15;;;8.02;;
15466;SDS011;7834;49.452;11.056;2023-03-31T08:27:18;14.38;;;8.02;;
15466;SDS011;7834;49.452;11.056;2023-03-31T08:29:44;15.35;;;8.85;;
15466;SDS011;7834;49.452;11.056;2023-03-31T08:32:10;17.90;;;9.17;;
15466;SDS011;7834;49.452;11.056;2023-03-31T08:34:36;13.57;;;8.70;;
15466;SDS011;7834;49.452;11.056;2023-03-31T08:37:02;14.95;;;8.13;;
15466;SDS011;7834;49.452;11.056;2023-03-31T08:39:28;9.98;;;7.15;;
15466;SDS011;7834;49.452;11.056;2023-03-31T08:41:59;9.05;;;5.45;;
15466;SDS011;7834;49.452;11.056;2023-03-31T08:44:28;11.05;;;6.30;;
15466;SDS011;7834;49.452;11.056;2023-03-31T08:46:56;9.82;;;6.35;;
15466;SDS011;7834;49.452;11.056;2023-03-31T08:49:22;10.25;;;6.18;;
15466;SDS011;7834;49.452;11.056;2023-03-31T08:51:51;9.60;;;6.40;;
15466;SDS011;7834;49.452;11.056;2023-03-31T08:54:30;11.97;;;6.53;;
15466;SDS011;7834;49.452;11.056;2023-03-31T08:56:57;10.75;;;6.28;;
15466;SDS011;7834;49.452;11.056;2023-03-31T09:09:38;8.95;;;5.97;;
15466;SDS011;7834;49.452;11.056;2023-03-31T09:12:01;10.05;;;5.93;;
15466;SDS011;7834;49.452;11.056;2023-03-31T09:15:15;9.05;;;5.68;;
15466;SDS011;7834;49.452;11.056;2023-03-31T09:17:26;9.60;;;5.90;;
15466;SDS011;7834;49.452;11.056;2023-03-31T09:20:11;9.48;;;5.45;;
15466;SDS011;7834;49.452;11.056;2023-03-31T09:25:31;9.27;;;5.95;;
15466;SDS011;7834;49.452;11.056;2023-03-31T09:27:59;9.27;;;5.35;;
15466;SDS011;7834;49.452;11.056;2023-03-31T09:30:28;8.35;;;5.25;;
15466;SDS011;7834;49.452;11.056;2023-03-31T09:33:05;9.88;;;6.28;;
15466;SDS011;7834;49.452;11.056;2023-03-31T09:35:35;9.27;;;5.90;;
15466;SDS011;7834;49.452;11.056;2023-03-31T09:38:01;8.82;;;5.60;;
15466;SDS011;7834;49.452;11.056;2023-03-31T09:40:27;8.20;;;5.80;;
15466;SDS011;7834;49.452;11.056;2023-03-31T09:43:05;25.92;;;19.80;;
15466;SDS011;7834;49.452;11.056;2023-03-31T09:45:32;8.27;;;5.47;;
15466;SDS011;7834;49.452;11.056;2023-03-31T09:48:11;4.72;;;4.05;;
15466;SDS011;7834;49.452;11.056;2023-03-31T09:50:43;6.07;;;4.32;;
15466;SDS011;7834;49.452;11.056;2023-03-31T09:53:13;4.75;;;3.60;;
15466;SDS011;7834;49.452;11.056;2023-03-31T09:55:44;4.77;;;3.60;;
15466;SDS011;7834;49.452;11.056;2023-03-31T09:58:15;4.38;;;3.70;;
15466;SDS011;7834;49.452;11.056;2023-03-31T10:00:41;4.88;;;3.40;;
15466;SDS011;7834;49.452;11.056;2023-03-31T10:03:09;5.30;;;3.53;;
15466;SDS011;7834;49.452;11.056;2023-03-31T10:05:47;4.85;;;3.28;;
15466;SDS011;7834;49.452;11.056;2023-03-31T10:10:43;4.87;;;3.33;;
15466;SDS011;7834;49.452;11.056;2023-03-31T10:13:09;4.93;;;4.00;;
15466;SDS011;7834;49.452;11.056;2023-03-31T10:15:39;6.68;;;3.17;;
15466;SDS011;7834;49.452;11.056;2023-03-31T10:18:05;4.55;;;2.53;;
15466;SDS011;7834;49.452;11.056;2023-03-31T10:20:32;6.80;;;3.20;;
15466;SDS011;7834;49.452;11.056;2023-03-31T10:23:05;11.00;;;3.08;;
15466;SDS011;7834;49.452;11.056;2023-03-31T10:25:40;6.05;;;2.83;;
15466;SDS011;7834;49.452;11.056;2023-03-31T10:28:09;4.78;;;2.75;;
15466;SDS011;7834;49.452;11.056;2023-03-31T10:30:36;9.63;;;2.95;;
15466;SDS011;7834;49.452;11.056;2023-03-31T10:33:14;6.83;;;2.70;;
15466;SDS011;7834;49.452;11.056;2023-03-31T10:35:43;6.30;;;2.60;;
15466;SDS011;7834;49.452;11.056;2023-03-31T10:38:11;6.15;;;2.53;;
15466;SDS011;7834;49.452;11.056;2023-03-31T10:40:49;4.38;;;2.30;;
15466;SDS011;7834;49.452;11.056;2023-03-31T10:43:16;4.60;;;2.23;;
15466;SDS011;7834;49.452;11.056;2023-03-31T10:45:53;6.07;;;2.60;;
15466;SDS011;7834;49.452;11.056;2023-03-31T10:48:24;6.72;;;2.70;;
15466;SDS011;7834;49.452;11.056;2023-03-31T10:50:51;4.68;;;2.30;;
15466;SDS011;7834;49.452;11.056;2023-03-31T10:53:18;6.67;;;2.80;;
15466;SDS011;7834;49.452;11.056;2023-03-31T10:55:47;6.28;;;3.47;;
15466;SDS011;7834;49.452;11.056;2023-03-31T10:58:19;4.75;;;2.45;;
15466;SDS011;7834;49.452;11.056;2023-03-31T11:00:58;5.65;;;2.72;;
15466;SDS011;7834;49.452;11.056;2023-03-31T11:11:40;5.65;;;2.40;;
15466;SDS011;7834;49.452;11.056;2023-03-31T11:14:14;4.43;;;2.20;;
15466;SDS011;7834;49.452;11.056;2023-03-31T11:19:18;6.67;;;2.30;;
15466;SDS011;7834;49.452;11.056;2023-03-31T11:22:08;5.63;;;2.13;;
15466;SDS011;7834;49.452;11.056;2023-03-31T11:43:21;7.85;;;2.33;;
15466;SDS011;7834;49.452;11.056;2023-03-31T11:45:51;6.78;;;2.15;;
15466;SDS011;7834;49.452;11.056;2023-03-31T11:48:25;7.13;;;2.33;;
15466;SDS011;7834;49.452;11.056;2023-03-31T11:50:55;9.45;;;2.47;;
15466;SDS011;7834;49.452;11.056;2023-03-31T11:53:29;6.72;;;2.22;;
15466;SDS011;7834;49.452;11.056;2023-03-31T11:55:56;4.00;;;1.90;;
15466;SDS011;7834;49.452;11.056;2023-03-31T11:58:26;2.88;;;1.50;;
15466;SDS011;7834;49.452;11.056;2023-03-31T12:01:41;3.50;;;1.63;;
15466;SDS011;7834;49.452;11.056;2023-03-31T12:06:30;3.95;;;1.60;;
15466;SDS011;7834;49.452;11.056;2023-03-31T12:09:03;5.10;;;1.85;;
15466;SDS011;7834;49.452;11.056;2023-03-31T12:11:35;4.13;;;1.80;;
15466;SDS011;7834;49.452;11.056;2023-03-31T12:16:51;6.00;;;2.08;;
15466;SDS011;7834;49.452;11.056;2023-03-31T12:19:29;5.85;;;2.40;;
15466;SDS011;7834;49.452;11.056;2023-03-31T12:22:03;3.17;;;1.50;;
15466;SDS011;7834;49.452;11.056;2023-03-31T12:24:32;1.92;;;1.40;;
15466;SDS011;7834;49.452;11.056;2023-03-31T12:29:38;3.37;;;1.33;;
15466;SDS011;7834;49.452;11.056;2023-03-31T12:32:14;3.13;;;1.48;;
15466;SDS011;7834;49.452;11.056;2023-03-31T12:34:44;2.42;;;1.60;;
15466;SDS011;7834;49.452;11.056;2023-03-31T12:37:22;3.47;;;1.48;;
15466;SDS011;7834;49.452;11.056;2023-03-31T12:47:35;2.88;;;1.55;;
15466;SDS011;7834;49.452;11.056;2023-03-31T12:57:34;2.85;;;1.30;;
15466;SDS011;7834;49.452;11.056;2023-03-31T13:02:36;5.07;;;1.40;;
15466;SDS011;7834;49.452;11.056;2023-03-31T13:07:47;7.38;;;2.00;;
15466;SDS011;7834;49.452;11.056;2023-03-31T13:12:40;3.67;;;1.20;;
15466;SDS011;7834;49.452;11.056;2023-03-31T13:15:11;3.03;;;1.05;;
15466;SDS011;7834;49.452;11.056;2023-03-31T13:17:38;2.70;;;1.10;;
15466;SDS011;7834;49.452;11.056;2023-03-31T13:22:58;22.52;;;11.43;;
15466;SDS011;7834;49.452;11.056;2023-03-31T13:28:13;3.80;;;1.20;;
15466;SDS011;7834;49.452;11.056;2023-03-31T13:33:12;3.87;;;1.03;;
15466;SDS011;7834;49.452;11.056;2023-03-31T13:35:39;3.13;;;1.20;;
15466;SDS011;7834;49.452;11.056;2023-03-31T13:40:45;2.22;;;1.17;;
15466;SDS011;7834;49.452;11.056;2023-03-31T13:46:05;3.00;;;1.30;;
15466;SDS011;7834;49.452;11.056;2023-03-31T13:48:42;7.07;;;1.48;;
15466;SDS011;7834;49.452;11.056;2023-03-31T13:51:14;4.32;;;1.35;;
15466;SDS011;7834;49.452;11.056;2023-03-31T14:06:43;7.97;;;1.90;;
15466;SDS011;7834;49.452;11.056;2023-03-31T14:09:23;5.97;;;1.80;;
15466;SDS011;7834;49.452;11.056;2023-03-31T14:11:50;5.55;;;1.80;;
15466;SDS011;7834;49.452;11.056;2023-03-31T14:14:16;5.30;;;1.87;;
15466;SDS011;7834;49.452;11.056;2023-03-31T14:24:31;10.30;;;2.70;;
15466;SDS011;7834;49.452;11.056;2023-03-31T14:37:10;5.43;;;1.70;;
15466;SDS011;7834;49.452;11.056;2023-03-31T14:39:45;3.35;;;1.33;;
15466;SDS011;7834;49.452;11.056;2023-03-31T14:42:12;3.70;;;1.60;;
15466;SDS011;7834;49.452;11.056;2023-03-31T14:44:39;3.20;;;1.40;;
15466;SDS011;7834;49.452;11.056;2023-03-31T14:47:11;5.90;;;1.55;;
15466;SDS011;7834;49.452;11.056;2023-03-31T14:49:41;5.20;;;1.20;;
15466;SDS011;7834;49.452;11.056;2023-03-31T14:52:18;3.63;;;1.40;;
15466;SDS011;7834;49.452;11.056;2023-03-31T14:54:45;3.67;;;1.55;;
15466;SDS011;7834;49.452;11.056;2023-03-31T14:57:16;2.90;;;1.70;;
15466;SDS011;7834;49.452;11.056;2023-03-31T14:59:44;3.97;;;1.47;;
15466;SDS011;7834;49.452;11.056;2023-03-31T15:02:15;3.70;;;1.52;;
15466;SDS011;7834;49.452;11.056;2023-03-31T15:04:42;4.25;;;1.60;;
15466;SDS011;7834;49.452;11.056;2023-03-31T15:07:11;3.28;;;1.40;;
15466;SDS011;7834;49.452;11.056;2023-03-31T15:09:37;2.85;;;1.25;;
15466;SDS011;7834;49.452;11.056;2023-03-31T15:12:04;2.80;;;1.40;;
15466;SDS011;7834;49.452;11.056;2023-03-31T15:14:36;3.40;;;1.30;;
15466;SDS011;7834;49.452;11.056;2023-03-31T15:17:04;4.72;;;1.42;;
15466;SDS011;7834;49.452;11.056;2023-03-31T15:19:34;3.40;;;1.40;;
15466;SDS011;7834;49.452;11.056;2023-03-31T15:22:10;2.88;;;1.40;;
15466;SDS011;7834;49.452;11.056;2023-03-31T15:24:38;4.43;;;1.60;;
15466;SDS011;7834;49.452;11.056;2023-03-31T15:27:06;3.55;;;1.58;;
15466;SDS011;7834;49.452;11.056;2023-03-31T15:29:37;5.43;;;1.70;;
15466;SDS011;7834;49.452;11.056;2023-03-31T15:32:07;4.55;;;1.48;;
15466;SDS011;7834;49.452;11.056;2023-03-31T15:34:36;3.88;;;1.80;;
15466;SDS011;7834;49.452;11.056;2023-03-31T15:37:05;3.08;;;1.42;;
15466;SDS011;7834;49.452;11.056;2023-03-31T15:39:31;3.47;;;1.52;;
15466;SDS011;7834;49.452;11.056;2023-03-31T15:41:59;4.43;;;2.35;;
15466;SDS011;7834;49.452;11.056;2023-03-31T15:46:59;3.58;;;1.50;;
15466;SDS011;7834;49.452;11.056;2023-03-31T15:49:26;5.10;;;1.63;;
15466;SDS011;7834;49.452;11.056;2023-03-31T15:51:54;2.63;;;1.42;;
15466;SDS011;7834;49.452;11.056;2023-03-31T15:56:51;4.03;;;2.00;;
15466;SDS011;7834;49.452;11.056;2023-03-31T15:59:22;3.80;;;1.50;;
15466;SDS011;7834;49.452;11.056;2023-03-31T16:01:48;3.28;;;1.50;;
15466;SDS011;7834;49.452;11.056;2023-03-31T16:04:15;4.03;;;1.47;;
15466;SDS011;7834;49.452;11.056;2023-03-31T16:09:18;2.90;;;1.60;;
15466;SDS011;7834;49.452;11.056;2023-03-31T16:11:51;3.25;;;1.65;;
15466;SDS011;7834;49.452;11.056;2023-03-31T16:16:44;3.05;;;1.85;;
15466;SDS011;7834;49.452;11.056;2023-03-31T16:19:12;4.32;;;1.80;;
15466;SDS011;7834;49.452;11.056;2023-03-31T16:21:39;2.58;;;1.40;;
15466;SDS011;7834;49.452;11.056;2023-03-31T16:24:06;3.85;;;1.80;;
15466;SDS011;7834;49.452;11.056;2023-03-31T16:26:32;2.78;;;1.48;;
15466;SDS011;7834;49.452;11.056;2023-03-31T16:28:59;3.63;;;1.63;;
15466;SDS011;7834;49.452;11.056;2023-03-31T16:31:33;4.72;;;2.10;;
15466;SDS011;7834;49.452;11.056;2023-03-31T16:34:00;5.05;;;1.50;;
15466;SDS011;7834;49.452;11.056;2023-03-31T16:36:26;3.60;;;1.70;;
15466;SDS011;7834;49.452;11.056;2023-03-31T16:38:53;1.98;;;1.25;;
15466;SDS011;7834;49.452;11.056;2023-03-31T16:41:20;3.97;;;1.60;;
15466;SDS011;7834;49.452;11.056;2023-03-31T16:43:47;2.67;;;1.57;;
15466;SDS011;7834;49.452;11.056;2023-03-31T16:46:18;3.40;;;1.90;;
15466;SDS011;7834;49.452;11.056;2023-03-31T16:48:44;3.85;;;1.92;;
15466;SDS011;7834;49.452;11.056;2023-03-31T16:51:10;3.35;;;1.60;;
15466;SDS011;7834;49.452;11.056;2023-03-31T16:53:36;3.42;;;1.52;;
15466;SDS011;7834;49.452;11.056;2023-03-31T16:56:03;3.67;;;1.60;;
15466;SDS011;7834;49.452;11.056;2023-03-31T16:58:31;5.60;;;1.57;;
15466;SDS011;7834;49.452;11.056;2023-03-31T17:00:57;4.43;;;1.70;;
15466;SDS011;7834;49.452;11.056;2023-03-31T17:03:24;5.10;;;1.63;;
15466;SDS011;7834;49.452;11.056;2023-03-31T17:05:51;3.53;;;1.50;;
15466;SDS011;7834;49.452;11.056;2023-03-31T17:08:19;4.63;;;1.60;;
15466;SDS011;7834;49.452;11.056;2023-03-31T17:10:52;5.00;;;1.83;;
15466;SDS011;7834;49.452;11.056;2023-03-31T17:13:19;4.25;;;1.70;;
15466;SDS011;7834;49.452;11.056;2023-03-31T17:15:45;4.63;;;2.20;;
15466;SDS011;7834;49.452;11.056;2023-03-31T17:18:11;5.40;;;2.75;;
15466;SDS011;7834;49.452;11.056;2023-03-31T17:20:38;6.43;;;3.40;;
15466;SDS011;7834;49.452;11.056;2023-03-31T17:23:04;8.43;;;3.80;;
15466;SDS011;7834;49.452;11.056;2023-03-31T17:25:30;5.05;;;2.33;;
15466;SDS011;7834;49.452;11.056;2023-03-31T17:27:58;4.43;;;2.40;;
15466;SDS011;7834;49.452;11.056;2023-03-31T17:30:25;5.33;;;1.93;;
15466;SDS011;7834;49.452;11.056;2023-03-31T17:32:52;4.40;;;2.05;;
15466;SDS011;7834;49.452;11.056;2023-03-31T17:35:18;3.22;;;1.80;;
15466;SDS011;7834;49.452;11.056;2023-03-31T17:37:48;6.43;;;1.85;;
15466;SDS011;7834;49.452;11.056;2023-03-31T17:40:17;5.15;;;1.98;;
15466;SDS011;7834;49.452;11.056;2023-03-31T17:42:43;3.67;;;2.00;;
15466;SDS011;7834;49.452;11.056;2023-03-31T17:45:11;5.45;;;1.67;;
15466;SDS011;7834;49.452;11.056;2023-03-31T17:47:37;3.95;;;1.50;;
15466;SDS011;7834;49.452;11.056;2023-03-31T17:50:03;5.05;;;1.98;;
15466;SDS011;7834;49.452;11.056;2023-03-31T17:52:30;4.83;;;1.80;;
15466;SDS011;7834;49.452;11.056;2023-03-31T17:54:57;4.40;;;1.70;;
15466;SDS011;7834;49.452;11.056;2023-03-31T17:57:23;4.18;;;1.80;;